createdAt,value
2018-01-15T00:00:18.597Z,1009.17
2018-01-15T00:01:28.336Z,1009.25
2018-01-15T00:02:38.315Z,1009.19
2018-01-15T00:03:48.042Z,1009.22
2018-01-15T00:04:57.972Z,1009.15
2018-01-15T00:06:07.428Z,1009.16
2018-01-15T00:07:16.092Z,1009.08
2018-01-15T00:08:25.809Z,1009.15
2018-01-15T00:09:35.258Z,1009.13
2018-01-15T00:10:44.488Z,1009.06
2018-01-15T00:11:54.214Z,1009.1
2018-01-15T00:13:03.663Z,1008.98
2018-01-15T00:14:13.119Z,1009.05
2018-01-15T00:15:22.573Z,1008.91
2018-01-15T00:16:31.762Z,1008.96
2018-01-15T00:17:41.216Z,1008.88
2018-01-15T00:18:50.946Z,1008.96
2018-01-15T00:20:00.658Z,1008.86
2018-01-15T00:21:09.844Z,1008.78
2018-01-15T00:22:19.553Z,1008.9
2018-01-15T00:23:29.266Z,1008.88
2018-01-15T00:24:38.984Z,1008.82
2018-01-15T00:25:48.959Z,1008.79
2018-01-15T00:26:58.431Z,1008.8
2018-01-15T00:28:08.176Z,1008.78
2018-01-15T00:29:18.169Z,1008.7
2018-01-15T00:30:27.357Z,1008.82
2018-01-15T00:31:36.814Z,1008.79
2018-01-15T00:32:45.736Z,1008.7
2018-01-15T00:33:55.184Z,1008.73
2018-01-15T00:35:04.909Z,1008.75
2018-01-15T00:36:14.904Z,1008.78
2018-01-15T00:37:24.100Z,1008.7
2018-01-15T00:38:33.437Z,1008.82
2018-01-15T00:39:43.155Z,1008.75
2018-01-15T00:40:52.340Z,1008.75
2018-01-15T00:42:01.528Z,1008.78
2018-01-15T00:43:11.006Z,1008.65
2018-01-15T00:44:20.458Z,1008.7
2018-01-15T00:45:29.910Z,1008.74
2018-01-15T00:46:39.618Z,1008.69
2018-01-15T00:47:49.067Z,1008.66
2018-01-15T00:48:58.528Z,1008.57
2018-01-15T00:50:07.873Z,1008.54
2018-01-15T00:51:17.902Z,1008.46
2018-01-15T00:52:27.411Z,1008.6
2018-01-15T00:53:36.862Z,1008.54
2018-01-15T00:54:46.315Z,1008.49
2018-01-15T00:55:55.500Z,1008.51
2018-01-15T00:57:05.490Z,1008.49
2018-01-15T00:58:15.479Z,1008.44
2018-01-15T00:59:24.662Z,1008.46
2018-01-15T01:00:34.125Z,1008.44
2018-01-15T01:01:44.112Z,1008.43
2018-01-15T01:02:53.290Z,1008.44
2018-01-15T01:04:02.470Z,1008.38
2018-01-15T01:05:11.922Z,1008.44
2018-01-15T01:06:21.633Z,1008.52
2018-01-15T01:07:31.100Z,1008.53
2018-01-15T01:08:40.558Z,1008.37
2018-01-15T01:09:50.280Z,1008.43
2018-01-15T01:10:59.722Z,1008.35
2018-01-15T01:12:09.185Z,1008.38
2018-01-15T01:13:18.641Z,1008.32
2018-01-15T01:14:27.829Z,1008.34
2018-01-15T01:15:37.021Z,1008.33
2018-01-15T01:16:46.998Z,1008.19
2018-01-15T01:17:56.996Z,1008.32
2018-01-15T01:19:06.503Z,1008.32
2018-01-15T01:20:16.229Z,1008.35
2018-01-15T01:21:25.938Z,1008.3
2018-01-15T01:22:35.657Z,1008.29
2018-01-15T01:23:45.367Z,1008.26
2018-01-15T01:24:55.351Z,1008.26
2018-01-15T01:26:04.536Z,1008.22
2018-01-15T01:27:13.749Z,1008.22
2018-01-15T01:28:23.728Z,1008.21
2018-01-15T01:29:33.446Z,1008.29
2018-01-15T01:30:43.168Z,1008.26
2018-01-15T01:31:52.883Z,1008.24
2018-01-15T01:33:02.076Z,1008.22
2018-01-15T01:34:11.533Z,1008.18
2018-01-15T01:35:20.994Z,1008.16
2018-01-15T01:36:30.758Z,1008.16
2018-01-15T01:37:40.750Z,1008.12
2018-01-15T01:38:50.210Z,1008.11
2018-01-15T01:39:59.933Z,1008.1
2018-01-15T01:41:09.913Z,1008.1
2018-01-15T01:42:19.894Z,1008.08
2018-01-15T01:43:29.661Z,1008.06
2018-01-15T01:44:38.861Z,1007.99
2018-01-15T01:45:48.892Z,1007.96
2018-01-15T01:46:58.602Z,1007.89
2018-01-15T01:48:08.050Z,1007.97
2018-01-15T01:49:17.794Z,1007.96
2018-01-15T01:50:27.037Z,1007.94
2018-01-15T01:51:36.229Z,1007.91
2018-01-15T01:52:45.679Z,1007.98
2018-01-15T01:53:54.606Z,1007.89
2018-01-15T01:55:04.074Z,1007.93
2018-01-15T01:56:14.053Z,1007.96
2018-01-15T01:57:23.790Z,1007.9
2018-01-15T01:58:33.247Z,1007.92
2018-01-15T01:59:42.690Z,1007.84
2018-01-15T02:00:52.403Z,1007.92
2018-01-15T02:02:02.117Z,1007.91
2018-01-15T02:03:11.846Z,1007.92
2018-01-15T02:04:21.045Z,1007.89
2018-01-15T02:05:30.654Z,1007.89
2018-01-15T02:06:40.642Z,1007.8
2018-01-15T02:07:50.132Z,1007.74
2018-01-15T02:08:59.048Z,1007.79
2018-01-15T02:10:08.502Z,1007.65
2018-01-15T02:11:18.015Z,1007.68
2018-01-15T02:12:27.200Z,1007.62
2018-01-15T02:13:36.915Z,1007.68
2018-01-15T02:14:46.653Z,1007.58
2018-01-15T02:15:56.109Z,1007.52
2018-01-15T02:17:06.093Z,1007.55
2018-01-15T02:18:15.535Z,1007.54
2018-01-15T02:19:24.716Z,1007.53
2018-01-15T02:20:34.191Z,1007.54
2018-01-15T02:21:44.003Z,1007.51
2018-01-15T02:22:53.928Z,1007.49
2018-01-15T02:24:03.954Z,1007.54
2018-01-15T02:25:13.397Z,1007.5
2018-01-15T02:26:22.845Z,1007.49
2018-01-15T02:27:32.561Z,1007.4
2018-01-15T02:28:42.015Z,1007.47
2018-01-15T02:29:51.726Z,1007.47
2018-01-15T02:31:01.172Z,1007.42
2018-01-15T02:32:10.627Z,1007.41
2018-01-15T02:33:20.340Z,1007.39
2018-01-15T02:34:29.522Z,1007.46
2018-01-15T02:35:38.972Z,1007.5
2018-01-15T02:36:48.163Z,1007.46
2018-01-15T02:37:57.875Z,1007.49
2018-01-15T02:39:07.067Z,1007.35
2018-01-15T02:40:16.252Z,1007.39
2018-01-15T02:41:25.701Z,1007.39
2018-01-15T02:42:34.892Z,1007.35
2018-01-15T02:43:44.340Z,1007.3
2018-01-15T02:44:54.054Z,1007.33
2018-01-15T02:46:03.778Z,1007.31
2018-01-15T02:47:13.231Z,1007.15
2018-01-15T02:48:23.217Z,1007.22
2018-01-15T02:49:33.203Z,1007.16
2018-01-15T02:50:42.924Z,1007.15
2018-01-15T02:51:52.643Z,1007.17
2018-01-15T02:53:02.627Z,1007.12
2018-01-15T02:54:11.810Z,1007.17
2018-01-15T02:55:21.788Z,1007.1
2018-01-15T02:56:31.296Z,1006.9
2018-01-15T02:57:41.008Z,1007.01
2018-01-15T02:58:50.457Z,1006.99
2018-01-15T02:59:59.911Z,1006.93
2018-01-15T03:01:09.881Z,1006.92
2018-01-15T03:02:18.798Z,1006.91
2018-01-15T03:03:28.518Z,1006.89
2018-01-15T03:04:37.706Z,1006.76
2018-01-15T03:05:47.152Z,1006.9
2018-01-15T03:06:56.612Z,1006.83
2018-01-15T03:08:06.323Z,1006.78
2018-01-15T03:09:16.287Z,1006.76
2018-01-15T03:10:26.056Z,1006.74
2018-01-15T03:11:34.978Z,1006.61
2018-01-15T03:12:44.425Z,1006.67
2018-01-15T03:13:54.139Z,1006.68
2018-01-15T03:15:03.594Z,1006.69
2018-01-15T03:16:13.317Z,1006.73
2018-01-15T03:17:23.029Z,1006.66
2018-01-15T03:18:32.741Z,1006.7
2018-01-15T03:19:41.930Z,1006.71
2018-01-15T03:20:50.999Z,1006.75
2018-01-15T03:22:00.708Z,1006.7
2018-01-15T03:23:10.155Z,1006.7
2018-01-15T03:24:19.337Z,1006.67
2018-01-15T03:25:28.520Z,1006.7
2018-01-15T03:26:38.240Z,1006.69
2018-01-15T03:27:48.218Z,1006.66
2018-01-15T03:28:57.671Z,1006.67
2018-01-15T03:30:07.189Z,1006.64
2018-01-15T03:31:17.168Z,1006.65
2018-01-15T03:32:26.356Z,1006.69
2018-01-15T03:33:36.069Z,1006.64
2018-01-15T03:34:45.509Z,1006.59
2018-01-15T03:35:55.215Z,1006.58
2018-01-15T03:37:04.664Z,1006.54
2018-01-15T03:38:13.999Z,1006.46
2018-01-15T03:39:23.979Z,1006.44
2018-01-15T03:40:33.706Z,1006.47
2018-01-15T03:41:42.624Z,1006.38
2018-01-15T03:42:52.607Z,1006.37
2018-01-15T03:44:01.791Z,1006.39
2018-01-15T03:45:11.236Z,1006.22
2018-01-15T03:46:20.687Z,1006.2
2018-01-15T03:47:30.134Z,1006.25
2018-01-15T03:48:39.054Z,1006.18
2018-01-15T03:49:48.762Z,1006.13
2018-01-15T03:50:58.469Z,1006.14
2018-01-15T03:52:07.711Z,1006.02
2018-01-15T03:53:17.700Z,1005.99
2018-01-15T03:54:27.147Z,1006.01
2018-01-15T03:55:36.596Z,1005.99
2018-01-15T03:56:45.782Z,1005.94
2018-01-15T03:57:55.231Z,1006.01
2018-01-15T03:59:04.412Z,1005.94
2018-01-15T04:00:14.128Z,1005.99
2018-01-15T04:01:23.987Z,1006.04
2018-01-15T04:02:33.698Z,1006
2018-01-15T04:03:43.409Z,1005.93
2018-01-15T04:04:53.121Z,1005.95
2018-01-15T04:06:02.846Z,1005.95
2018-01-15T04:07:12.828Z,1005.94
2018-01-15T04:08:22.543Z,1005.98
2018-01-15T04:09:31.992Z,1005.94
2018-01-15T04:10:41.702Z,1005.91
2018-01-15T04:11:51.411Z,1005.91
2018-01-15T04:13:00.864Z,1005.9
2018-01-15T04:14:10.586Z,1005.82
2018-01-15T04:15:20.035Z,1005.86
2018-01-15T04:16:29.745Z,1005.85
2018-01-15T04:17:39.453Z,1005.85
2018-01-15T04:18:49.049Z,1005.83
2018-01-15T04:19:58.497Z,1005.83
2018-01-15T04:21:07.682Z,1005.88
2018-01-15T04:22:17.132Z,1005.85
2018-01-15T04:23:27.107Z,1005.79
2018-01-15T04:24:36.553Z,1005.8
2018-01-15T04:25:46.263Z,1005.77
2018-01-15T04:26:55.715Z,1005.71
2018-01-15T04:28:05.430Z,1005.69
2018-01-15T04:29:15.143Z,1005.76
2018-01-15T04:30:24.588Z,1005.73
2018-01-15T04:31:33.511Z,1005.7
2018-01-15T04:32:42.957Z,1005.63
2018-01-15T04:33:52.402Z,1005.62
2018-01-15T04:35:01.588Z,1005.54
2018-01-15T04:36:11.183Z,1005.6
2018-01-15T04:37:20.632Z,1005.55
2018-01-15T04:38:30.086Z,1005.56
2018-01-15T04:39:39.797Z,1005.53
2018-01-15T04:40:49.513Z,1005.51
2018-01-15T04:41:59.227Z,1005.51
2018-01-15T04:43:08.941Z,1005.46
2018-01-15T04:44:18.656Z,1005.51
2018-01-15T04:45:27.897Z,1005.48
2018-01-15T04:46:37.358Z,1005.42
2018-01-15T04:47:47.335Z,1005.35
2018-01-15T04:48:57.046Z,1005.34
2018-01-15T04:50:06.552Z,1005.38
2018-01-15T04:51:16.532Z,1005.37
2018-01-15T04:52:25.718Z,1005.37
2018-01-15T04:53:35.427Z,1005.31
2018-01-15T04:54:45.147Z,1005.38
2018-01-15T04:55:54.862Z,1005.37
2018-01-15T04:57:04.895Z,1005.33
2018-01-15T04:58:14.352Z,1005.33
2018-01-15T04:59:23.544Z,1005.28
2018-01-15T05:00:33.523Z,1005.27
2018-01-15T05:01:43.564Z,1005.34
2018-01-15T05:02:53.014Z,1005.22
2018-01-15T05:04:02.474Z,1005.27
2018-01-15T05:05:12.209Z,1005.17
2018-01-15T05:06:21.664Z,1005.17
2018-01-15T05:07:31.380Z,1005.16
2018-01-15T05:08:41.094Z,1005.16
2018-01-15T05:09:50.547Z,1005.12
2018-01-15T05:11:00.265Z,1005.15
2018-01-15T05:12:09.717Z,1005.09
2018-01-15T05:13:18.951Z,1005.09
2018-01-15T05:14:28.408Z,1004.98
2018-01-15T05:15:38.383Z,1005
2018-01-15T05:16:48.090Z,1005.11
2018-01-15T05:17:57.275Z,1005.02
2018-01-15T05:19:07.254Z,1005.01
2018-01-15T05:20:16.712Z,1004.98
2018-01-15T05:21:26.732Z,1004.91
2018-01-15T05:22:36.493Z,1004.96
2018-01-15T05:23:46.269Z,1004.94
2018-01-15T05:24:55.983Z,1004.86
2018-01-15T05:26:05.431Z,1004.9
2018-01-15T05:27:14.879Z,1004.84
2018-01-15T05:28:24.650Z,1004.87
2018-01-15T05:29:34.097Z,1004.87
2018-01-15T05:30:43.541Z,1004.83
2018-01-15T05:31:52.460Z,1004.8
2018-01-15T05:33:01.382Z,1004.87
2018-01-15T05:34:10.835Z,1004.81
2018-01-15T05:35:20.297Z,1004.78
2018-01-15T05:36:29.745Z,1004.8
2018-01-15T05:37:38.938Z,1004.76
2018-01-15T05:38:48.376Z,1004.74
2018-01-15T05:39:58.088Z,1004.75
2018-01-15T05:41:07.008Z,1004.73
2018-01-15T05:42:15.929Z,1004.79
2018-01-15T05:43:24.848Z,1004.69
2018-01-15T05:44:34.819Z,1004.77
2018-01-15T05:45:43.741Z,1004.71
2018-01-15T05:46:53.448Z,1004.64
2018-01-15T05:48:03.163Z,1004.65
2018-01-15T05:49:12.872Z,1004.6
2018-01-15T05:50:22.585Z,1004.68
2018-01-15T05:51:32.290Z,1004.61
2018-01-15T05:52:42.269Z,1004.55
2018-01-15T05:53:52.246Z,1004.64
2018-01-15T05:55:02.220Z,1004.64
2018-01-15T05:56:12.217Z,1004.57
2018-01-15T05:57:21.937Z,1004.45
2018-01-15T05:58:31.383Z,1004.54
2018-01-15T05:59:40.828Z,1004.52
2018-01-15T06:00:50.062Z,1004.51
2018-01-15T06:01:59.892Z,1004.46
2018-01-15T06:03:09.078Z,1004.35
2018-01-15T06:04:18.790Z,1004.39
2018-01-15T06:05:27.708Z,1004.21
2018-01-15T06:06:37.154Z,1004.43
2018-01-15T06:07:46.876Z,1004.32
2018-01-15T06:08:56.328Z,1004.33
2018-01-15T06:10:06.045Z,1004.52
2018-01-15T06:11:15.490Z,1004.45
2018-01-15T06:12:24.681Z,1004.39
2018-01-15T06:13:34.141Z,1004.33
2018-01-15T06:14:43.857Z,1004.29
2018-01-15T06:15:53.582Z,1004.17
2018-01-15T06:17:03.293Z,1004.26
2018-01-15T06:18:13.014Z,1004.08
2018-01-15T06:19:22.727Z,1004.13
2018-01-15T06:20:32.435Z,1004.07
2018-01-15T06:21:42.153Z,1004.21
2018-01-15T06:22:51.598Z,1004.09
2018-01-15T06:24:01.048Z,1004.02
2018-01-15T06:25:10.507Z,1004.08
2018-01-15T06:26:20.216Z,1004.15
2018-01-15T06:27:29.401Z,1004.05
2018-01-15T06:28:39.117Z,1004.05
2018-01-15T06:29:48.832Z,1003.96
2018-01-15T06:30:58.283Z,1003.97
2018-01-15T06:32:07.994Z,1003.93
2018-01-15T06:33:17.712Z,1003.92
2018-01-15T06:34:27.424Z,1003.92
2018-01-15T06:35:36.896Z,1003.85
2018-01-15T06:36:46.346Z,1003.84
2018-01-15T06:37:56.470Z,1003.82
2018-01-15T06:39:05.685Z,1003.79
2018-01-15T06:40:15.133Z,1003.78
2018-01-15T06:41:24.844Z,1003.74
2018-01-15T06:42:34.570Z,1003.72
2018-01-15T06:43:44.546Z,1003.7
2018-01-15T06:44:53.728Z,1003.65
2018-01-15T06:46:02.916Z,1003.57
2018-01-15T06:47:12.096Z,1003.61
2018-01-15T06:48:21.540Z,1003.59
2018-01-15T06:49:30.727Z,1003.57
2018-01-15T06:50:40.437Z,1003.5
2018-01-15T06:51:50.149Z,1003.47
2018-01-15T06:52:59.338Z,1003.44
2018-01-15T06:54:08.782Z,1003.33
2018-01-15T06:55:17.700Z,1003.39
2018-01-15T06:56:27.416Z,1003.35
2018-01-15T06:57:37.386Z,1003.43
2018-01-15T06:58:46.835Z,1003.36
2018-01-15T06:59:56.294Z,1003.37
2018-01-15T07:01:06.270Z,1003.39
2018-01-15T07:02:16.262Z,1003.36
2018-01-15T07:03:25.452Z,1003.27
2018-01-15T07:04:34.371Z,1003.34
2018-01-15T07:05:43.818Z,1003.34
2018-01-15T07:06:53.529Z,1003.31
2018-01-15T07:08:02.717Z,1003.34
2018-01-15T07:09:12.435Z,1003.38
2018-01-15T07:10:22.146Z,1003.32
2018-01-15T07:11:31.368Z,1003.31
2018-01-15T07:12:40.552Z,1003.26
2018-01-15T07:13:50.532Z,1003.29
2018-01-15T07:14:59.978Z,1003.2
2018-01-15T07:16:09.697Z,1003.22
2018-01-15T07:17:18.349Z,1003.15
2018-01-15T07:18:28.069Z,1003.18
2018-01-15T07:19:37.518Z,1003.13
2018-01-15T07:20:46.707Z,1003.19
2018-01-15T07:21:56.688Z,1003.13
2018-01-15T07:23:06.677Z,1003.23
2018-01-15T07:24:16.394Z,1003.19
2018-01-15T07:25:26.173Z,1003.08
2018-01-15T07:26:35.889Z,1003.12
2018-01-15T07:27:44.811Z,1003.13
2018-01-15T07:28:53.732Z,1003.12
2018-01-15T07:30:02.916Z,1003.13
2018-01-15T07:31:12.363Z,1003.1
2018-01-15T07:32:21.601Z,1003.13
2018-01-15T07:33:31.055Z,1003.08
2018-01-15T07:34:40.835Z,1003.05
2018-01-15T07:35:50.275Z,1003.08
2018-01-15T07:36:59.724Z,1003.06
2018-01-15T07:38:09.462Z,1003.12
2018-01-15T07:39:18.724Z,1003.06
2018-01-15T07:40:27.682Z,1003
2018-01-15T07:41:36.866Z,1002.99
2018-01-15T07:42:46.313Z,1003
2018-01-15T07:43:56.026Z,1002.95
2018-01-15T07:45:06.002Z,1002.9
2018-01-15T07:46:15.462Z,1002.92
2018-01-15T07:47:24.505Z,1002.95
2018-01-15T07:48:33.752Z,1002.88
2018-01-15T07:49:43.205Z,1002.98
2018-01-15T07:50:52.928Z,1002.9
2018-01-15T07:52:02.656Z,1002.8
2018-01-15T07:53:12.104Z,1002.82
2018-01-15T07:54:21.290Z,1002.8
2018-01-15T07:55:30.529Z,1002.77
2018-01-15T07:56:40.292Z,1002.77
2018-01-15T07:57:50.619Z,1002.66
2018-01-15T07:59:02.966Z,1002.7
2018-01-15T08:00:12.671Z,1002.83
2018-01-15T08:01:22.294Z,1002.75
2018-01-15T08:02:31.441Z,1002.75
2018-01-15T08:03:40.378Z,1002.67
2018-01-15T08:04:50.520Z,1002.66
2018-01-15T08:06:00.796Z,1002.64
2018-01-15T08:07:10.749Z,1002.69
2018-01-15T08:08:20.509Z,1002.59
2018-01-15T08:09:29.861Z,1002.62
2018-01-15T08:10:40.337Z,1002.62
2018-01-15T08:11:51.040Z,1002.63
2018-01-15T08:13:00.530Z,1002.56
2018-01-15T08:14:09.981Z,1002.61
2018-01-15T08:15:19.995Z,1002.51
2018-01-15T08:16:29.452Z,1002.52
2018-01-15T08:17:39.429Z,1002.53
2018-01-15T08:18:49.145Z,1002.54
2018-01-15T08:19:58.340Z,1002.56
2018-01-15T08:21:07.839Z,1002.37
2018-01-15T08:22:17.309Z,1002.55
2018-01-15T08:23:26.773Z,1002.51
2018-01-15T08:24:36.538Z,1002.49
2018-01-15T08:25:46.265Z,1002.55
2018-01-15T08:26:55.484Z,1002.49
2018-01-15T08:28:05.198Z,1002.53
2018-01-15T08:29:15.542Z,1002.59
2018-01-15T08:30:25.255Z,1002.51
2018-01-15T08:31:34.876Z,1002.36
2018-01-15T08:32:44.505Z,1002.53
2018-01-15T08:33:54.042Z,1002.45
2018-01-15T08:35:03.255Z,1002.41
2018-01-15T08:36:12.910Z,1002.44
2018-01-15T08:37:22.899Z,1002.48
2018-01-15T08:38:32.874Z,1002.53
2018-01-15T08:39:42.063Z,1002.44
2018-01-15T08:40:51.650Z,1002.51
2018-01-15T08:42:00.957Z,1002.37
2018-01-15T08:43:10.154Z,1002.4
2018-01-15T08:44:20.141Z,1002.36
2018-01-15T08:45:29.334Z,1002.36
2018-01-15T08:46:39.048Z,1002.25
2018-01-15T08:47:48.504Z,1002.41
2018-01-15T08:48:57.759Z,1002.17
2018-01-15T08:50:07.723Z,1002.22
2018-01-15T08:51:16.908Z,1002.34
2018-01-15T08:52:26.126Z,1002.25
2018-01-15T08:53:35.621Z,1002.24
2018-01-15T08:54:45.391Z,1002.22
2018-01-15T08:55:54.846Z,1002.24
2018-01-15T08:57:04.831Z,1002.07
2018-01-15T08:58:14.278Z,1002.13
2018-01-15T08:59:23.998Z,1002.03
2018-01-15T09:00:33.717Z,1002.05
2018-01-15T09:01:42.952Z,1002.12
2018-01-15T09:02:52.464Z,1002.04
2018-01-15T09:04:01.905Z,1001.99
2018-01-15T09:05:11.157Z,1001.88
2018-01-15T09:06:20.869Z,1002.01
2018-01-15T09:07:30.593Z,1001.97
2018-01-15T09:08:39.514Z,1002.07
2018-01-15T09:09:48.709Z,1001.88
2018-01-15T09:10:58.432Z,1001.93
2018-01-15T09:12:08.148Z,1001.96
2018-01-15T09:13:17.906Z,1001.84
2018-01-15T09:14:27.112Z,1001.89
2018-01-15T09:15:36.824Z,1001.85
2018-01-15T09:16:46.287Z,1001.84
2018-01-15T09:17:55.790Z,1001.89
2018-01-15T09:19:05.240Z,1001.85
2018-01-15T09:20:15.217Z,1001.73
2018-01-15T09:21:25.249Z,1001.7
2018-01-15T09:22:34.510Z,1001.75
2018-01-15T09:23:44.264Z,1001.68
2018-01-15T09:24:53.723Z,1001.61
2018-01-15T09:26:03.168Z,1001.63
2018-01-15T09:27:12.358Z,1001.65
2018-01-15T09:28:21.550Z,1001.64
2018-01-15T09:29:30.999Z,1001.61
2018-01-15T09:30:40.185Z,1001.6
2018-01-15T09:31:49.636Z,1001.43
2018-01-15T09:32:59.085Z,1001.41
2018-01-15T09:34:08.581Z,1001.46
2018-01-15T09:35:17.800Z,1001.51
2018-01-15T09:36:27.683Z,1001.47
2018-01-15T09:37:37.133Z,1001.31
2018-01-15T09:38:46.847Z,1001.47
2018-01-15T09:39:56.031Z,1001.48
2018-01-15T09:41:05.491Z,1001.57
2018-01-15T09:42:15.498Z,1001.19
2018-01-15T09:43:24.954Z,1001.45
2018-01-15T09:44:34.675Z,1001.52
2018-01-15T09:45:43.951Z,1001.43
2018-01-15T09:46:52.878Z,1001.31
2018-01-15T09:48:02.330Z,1001.36
2018-01-15T09:49:12.036Z,1001.42
2018-01-15T09:50:21.767Z,1001.46
2018-01-15T09:51:31.298Z,1001.37
2018-01-15T09:52:41.280Z,1001.29
2018-01-15T09:53:50.995Z,1001.31
2018-01-15T09:55:00.446Z,1001.24
2018-01-15T09:56:09.633Z,1001.28
2018-01-15T09:57:19.632Z,1001.27
2018-01-15T09:58:28.823Z,1001.16
2018-01-15T09:59:38.797Z,1001.06
2018-01-15T10:00:47.987Z,1001.15
2018-01-15T10:01:57.701Z,1001.1
2018-01-15T10:03:06.887Z,1001
2018-01-15T10:04:16.343Z,1001.07
2018-01-15T10:05:25.788Z,1001
2018-01-15T10:06:34.972Z,1000.97
2018-01-15T10:07:44.706Z,1001.06
2018-01-15T10:08:54.415Z,1001.03
2018-01-15T10:10:04.156Z,1000.98
2018-01-15T10:11:13.374Z,1000.89
2018-01-15T10:12:23.647Z,1001.05
2018-01-15T10:13:33.362Z,1001.02
2018-01-15T10:14:43.078Z,1000.96
2018-01-15T10:15:53.060Z,1000.94
2018-01-15T10:17:02.785Z,1000.99
2018-01-15T10:18:12.770Z,1000.91
2018-01-15T10:19:21.960Z,1000.79
2018-01-15T10:20:31.474Z,1000.76
2018-01-15T10:21:40.668Z,1000.81
2018-01-15T10:22:50.378Z,1000.79
2018-01-15T10:24:00.095Z,1000.78
2018-01-15T10:25:10.086Z,1000.69
2018-01-15T10:26:19.315Z,1000.64
2018-01-15T10:27:28.501Z,1000.57
2018-01-15T10:28:37.687Z,1000.32
2018-01-15T10:29:47.131Z,1000.47
2018-01-15T10:30:56.857Z,1000.5
2018-01-15T10:32:06.048Z,1000.41
2018-01-15T10:33:15.512Z,1000.39
2018-01-15T10:34:25.493Z,1000.4
2018-01-15T10:35:35.224Z,1000.47
2018-01-15T10:36:44.672Z,1000.4
2018-01-15T10:37:54.128Z,1000.41
2018-01-15T10:39:03.854Z,1000.13
2018-01-15T10:40:13.837Z,1000.29
2018-01-15T10:41:23.290Z,1000.27
2018-01-15T10:42:33.265Z,1000.07
2018-01-15T10:43:42.454Z,1000.17
2018-01-15T10:44:51.645Z,999.97
2018-01-15T10:46:01.092Z,1000.15
2018-01-15T10:47:10.047Z,999.93
2018-01-15T10:48:19.785Z,999.93
2018-01-15T10:49:29.773Z,999.9
2018-01-15T10:50:39.491Z,999.89
2018-01-15T10:51:48.941Z,999.92
2018-01-15T10:52:58.122Z,999.84
2018-01-15T10:54:07.840Z,999.81
2018-01-15T10:55:16.813Z,999.51
2018-01-15T10:56:26.322Z,999.77
2018-01-15T10:57:35.780Z,999.76
2018-01-15T10:58:45.504Z,999.64
2018-01-15T10:59:55.211Z,999.37
2018-01-15T11:01:04.972Z,999.66
2018-01-15T11:02:14.689Z,999.56
2018-01-15T11:03:24.139Z,999.43
2018-01-15T11:04:33.359Z,999.51
2018-01-15T11:05:42.286Z,999.42
2018-01-15T11:06:51.773Z,999.47
2018-01-15T11:08:01.371Z,999.57
2018-01-15T11:09:10.839Z,999.35
2018-01-15T11:10:20.025Z,999.35
2018-01-15T11:11:29.529Z,999.38
2018-01-15T11:12:38.987Z,999.36
2018-01-15T11:13:48.436Z,999.19
2018-01-15T11:14:57.939Z,999.21
2018-01-15T11:16:07.143Z,999.01
2018-01-15T11:17:17.149Z,999.19
2018-01-15T11:18:26.629Z,999.05
2018-01-15T11:20:45.307Z,998.86
2018-01-15T11:21:54.810Z,998.87
2018-01-15T11:23:04.264Z,998.78
2018-01-15T11:24:14.004Z,998.83
2018-01-15T11:25:23.211Z,998.94
2018-01-15T11:26:32.293Z,998.81
2018-01-15T11:27:41.485Z,998.83
2018-01-15T11:28:50.940Z,998.62
2018-01-15T11:30:00.655Z,998.72
2018-01-15T11:31:09.849Z,998.72
2018-01-15T11:32:19.570Z,998.61
2018-01-15T11:33:28.498Z,998.75
2018-01-15T11:34:37.966Z,998.56
2018-01-15T11:35:47.418Z,998.68
2018-01-15T11:36:56.602Z,998.58
2018-01-15T11:38:06.049Z,998.68
2018-01-15T11:39:15.760Z,998.47
2018-01-15T11:40:25.216Z,998.52
2018-01-15T11:41:34.252Z,998.53
2018-01-15T11:42:44.200Z,998.57
2018-01-15T11:43:53.392Z,998.46
2018-01-15T11:45:03.177Z,998.52
2018-01-15T11:46:12.949Z,998.29
2018-01-15T11:47:22.158Z,998.18
2018-01-15T11:48:32.191Z,998.16
2018-01-15T11:49:41.385Z,997.87
2018-01-15T11:50:50.837Z,998.13
2018-01-15T11:52:00.553Z,998.16
2018-01-15T11:53:09.513Z,997.95
2018-01-15T11:54:19.494Z,997.94
2018-01-15T11:55:29.577Z,998.01
2018-01-15T11:56:39.339Z,997.95
2018-01-15T11:57:49.101Z,997.84
2018-01-15T11:58:58.083Z,997.89
2018-01-15T12:00:07.272Z,997.87
2018-01-15T12:01:16.994Z,997.65
2018-01-15T12:02:26.990Z,997.59
2018-01-15T12:03:36.180Z,997.5
2018-01-15T12:04:45.971Z,997.51
2018-01-15T12:05:55.958Z,997.46
2018-01-15T12:07:05.698Z,997.32
2018-01-15T12:08:14.885Z,997.41
2018-01-15T12:09:24.602Z,997.23
2018-01-15T12:10:34.320Z,997.32
2018-01-15T12:11:43.772Z,997.35
2018-01-15T12:12:53.252Z,997.06
2018-01-15T12:14:02.987Z,997.22
2018-01-15T12:15:12.757Z,997.01
2018-01-15T12:16:22.565Z,997.16
2018-01-15T12:17:31.505Z,997.12
2018-01-15T12:18:40.976Z,997.06
2018-01-15T12:19:50.475Z,997.07
2018-01-15T12:20:59.930Z,996.97
2018-01-15T12:22:09.426Z,996.92
2018-01-15T12:23:19.142Z,996.86
2018-01-15T12:24:28.884Z,996.63
2018-01-15T12:25:38.606Z,996.72
2018-01-15T12:26:48.062Z,996.54
2018-01-15T12:27:57.823Z,996.43
2018-01-15T12:29:07.356Z,996.49
2018-01-15T12:30:16.813Z,996.53
2018-01-15T12:31:26.550Z,996.48
2018-01-15T12:32:36.273Z,996.41
2018-01-15T12:33:45.525Z,996.37
2018-01-15T12:34:55.029Z,996.29
2018-01-15T12:36:04.893Z,996.16
2018-01-15T12:37:14.642Z,996.17
2018-01-15T12:38:24.681Z,996.16
2018-01-15T12:39:34.344Z,996.26
2018-01-15T12:40:43.677Z,996.23
2018-01-15T12:41:53.077Z,996.05
2018-01-15T12:43:03.410Z,996.16
2018-01-15T12:44:13.581Z,996.17
2018-01-15T12:45:22.982Z,996.11
2018-01-15T12:46:32.632Z,996.08
2018-01-15T12:47:42.285Z,995.95
2018-01-15T12:48:52.187Z,996.06
2018-01-15T12:50:02.081Z,995.77
2018-01-15T12:51:12.021Z,995.86
2018-01-15T12:52:21.999Z,995.76
2018-01-15T12:53:31.983Z,995.73
2018-01-15T12:54:41.863Z,995.74
2018-01-15T12:55:51.781Z,995.7
2018-01-15T12:57:01.973Z,995.61
2018-01-15T12:58:11.255Z,995.63
2018-01-15T12:59:20.599Z,995.45
2018-01-15T13:00:30.228Z,995.53
2018-01-15T13:01:39.817Z,995.63
2018-01-15T13:02:49.419Z,995.64
2018-01-15T13:03:59.567Z,995.43
2018-01-15T13:05:09.542Z,995.46
2018-01-15T13:06:19.215Z,995.33
2018-01-15T13:07:28.913Z,995.4
2018-01-15T13:08:38.929Z,995.4
2018-01-15T13:09:49.128Z,995.31
2018-01-15T13:10:59.141Z,995.34
2018-01-15T13:12:09.202Z,995.3
2018-01-15T13:13:18.700Z,995.17
2018-01-15T13:14:28.980Z,995.31
2018-01-15T13:15:38.978Z,995.22
2018-01-15T13:16:48.932Z,995.22
2018-01-15T13:17:58.898Z,995.01
2018-01-15T13:19:09.057Z,995.02
2018-01-15T13:20:18.390Z,995.05
2018-01-15T13:21:28.367Z,994.84
2018-01-15T13:22:38.352Z,994.86
2018-01-15T13:23:47.814Z,994.95
2018-01-15T13:24:57.579Z,994.95
2018-01-15T13:26:07.352Z,994.88
2018-01-15T13:27:17.183Z,994.88
2018-01-15T13:28:26.445Z,994.75
2018-01-15T13:29:35.707Z,994.7
2018-01-15T13:30:45.585Z,994.75
2018-01-15T13:31:55.130Z,994.55
2018-01-15T13:33:04.429Z,994.47
2018-01-15T13:34:14.272Z,994.5
2018-01-15T13:35:23.536Z,994.52
2018-01-15T13:36:33.593Z,994.49
2018-01-15T13:37:42.703Z,994.57
2018-01-15T13:38:52.287Z,994.48
2018-01-15T13:40:01.671Z,994.33
2018-01-15T13:41:11.138Z,994.44
2018-01-15T13:42:21.079Z,994.33
2018-01-15T13:43:29.963Z,994.28
2018-01-15T13:44:39.851Z,994.34
2018-01-15T13:45:49.416Z,994.43
2018-01-15T13:46:59.265Z,994.45
2018-01-15T13:48:08.664Z,994.39
2018-01-15T13:49:18.271Z,994.43
2018-01-15T13:50:27.902Z,994.33
2018-01-15T13:51:37.542Z,994.44
2018-01-15T13:52:47.420Z,994.48
2018-01-15T13:53:57.067Z,994.43
2018-01-15T13:55:06.974Z,994.41
2018-01-15T13:56:16.663Z,994.37
2018-01-15T13:57:26.552Z,994.45
2018-01-15T13:58:36.755Z,994.41
2018-01-15T13:59:47.102Z,994.31
2018-01-15T14:00:57.209Z,994.27
2018-01-15T14:02:07.230Z,994.23
2018-01-15T14:03:16.812Z,994.22
2018-01-15T14:04:26.697Z,994.12
2018-01-15T14:05:36.415Z,994.17
2018-01-15T14:06:46.529Z,994.03
2018-01-15T14:07:56.439Z,993.87
2018-01-15T14:09:06.437Z,993.78
2018-01-15T14:10:15.868Z,993.64
2018-01-15T14:11:25.566Z,993.75